sensor_id;sensor_type;location;lat;lon;timestamp;temperature;humidity
13606;DHT22;6874;52.084;5.090;2024-03-07T00:01:55;7.40;99.90
13606;DHT22;6874;52.084;5.090;2024-03-07T00:04:20;7.30;99.90
13606;DHT22;6874;52.084;5.090;2024-03-07T00:06:46;7.30;99.90
13606;DHT22;6874;52.084;5.090;2024-03-07T00:09:11;7.30;99.90
13606;DHT22;6874;52.084;5.090;2024-03-07T00:11:37;7.30;99.90
13606;DHT22;6874;52.084;5.090;2024-03-07T00:14:03;7.30;99.90
13606;DHT22;6874;52.084;5.090;2024-03-07T00:16:31;7.20;99.90
13606;DHT22;6874;52.084;5.090;2024-03-07T00:18:59;7.20;99.90
13606;DHT22;6874;52.084;5.090;2024-03-07T00:21:25;7.20;99.90
13606;DHT22;6874;52.084;5.090;2024-03-07T00:23:51;7.20;99.90
13606;DHT22;6874;52.084;5.090;2024-03-07T00:26:17;7.20;99.90
13606;DHT22;6874;52.084;5.090;2024-03-07T00:28:42;7.10;99.90
13606;DHT22;6874;52.084;5.090;2024-03-07T00:31:08;7.10;99.90
13606;DHT22;6874;52.084;5.090;2024-03-07T00:33:34;7.10;99.90
13606;DHT22;6874;52.084;5.090;2024-03-07T00:36:00;7.10;99.90
13606;DHT22;6874;52.084;5.090;2024-03-07T00:38:25;7.10;99.90
13606;DHT22;6874;52.084;5.090;2024-03-07T00:40:51;7.10;99.90
13606;DHT22;6874;52.084;5.090;2024-03-07T00:43:17;7.10;99.90
13606;DHT22;6874;52.084;5.090;2024-03-07T00:45:42;7.00;99.90
13606;DHT22;6874;52.084;5.090;2024-03-07T00:48:08;7.00;99.90
13606;DHT22;6874;52.084;5.090;2024-03-07T00:50:33;7.00;99.90
13606;DHT22;6874;52.084;5.090;2024-03-07T00:52:59;6.90;99.90
13606;DHT22;6874;52.084;5.090;2024-03-07T00:55:25;6.90;99.90
13606;DHT22;6874;52.084;5.090;2024-03-07T00:57:50;6.90;99.90
13606;DHT22;6874;52.084;5.090;2024-03-07T01:00:16;6.90;99.90
13606;DHT22;6874;52.084;5.090;2024-03-07T01:02:45;6.90;99.90
13606;DHT22;6874;52.084;5.090;2024-03-07T01:05:12;6.90;99.90
13606;DHT22;6874;52.084;5.090;2024-03-07T01:07:40;6.90;99.90
13606;DHT22;6874;52.084;5.090;2024-03-07T01:10:06;6.90;99.90
13606;DHT22;6874;52.084;5.090;2024-03-07T01:12:35;6.80;99.90
13606;DHT22;6874;52.084;5.090;2024-03-07T01:15:00;6.80;99.90
13606;DHT22;6874;52.084;5.090;2024-03-07T01:17:26;6.80;99.90
13606;DHT22;6874;52.084;5.090;2024-03-07T01:19:52;6.70;99.90
13606;DHT22;6874;52.084;5.090;2024-03-07T01:22:17;6.70;99.90
13606;DHT22;6874;52.084;5.090;2024-03-07T01:24:43;6.80;99.90
13606;DHT22;6874;52.084;5.090;2024-03-07T01:27:09;6.70;99.90
13606;DHT22;6874;52.084;5.090;2024-03-07T01:29:34;6.70;99.90
13606;DHT22;6874;52.084;5.090;2024-03-07T01:32:00;6.70;99.90
13606;DHT22;6874;52.084;5.090;2024-03-07T01:34:26;6.60;99.90
13606;DHT22;6874;52.084;5.090;2024-03-07T01:36:52;6.60;99.90
13606;DHT22;6874;52.084;5.090;2024-03-07T01:39:18;6.70;99.90
13606;DHT22;6874;52.084;5.090;2024-03-07T01:41:43;6.60;99.90
13606;DHT22;6874;52.084;5.090;2024-03-07T01:44:09;6.60;99.90
13606;DHT22;6874;52.084;5.090;2024-03-07T01:46:35;6.60;99.90
13606;DHT22;6874;52.084;5.090;2024-03-07T01:49:01;6.50;99.90
13606;DHT22;6874;52.084;5.090;2024-03-07T01:51:27;6.50;99.90
13606;DHT22;6874;52.084;5.090;2024-03-07T01:53:53;6.50;99.90
13606;DHT22;6874;52.084;5.090;2024-03-07T01:56:19;6.50;99.90
13606;DHT22;6874;52.084;5.090;2024-03-07T01:58:49;6.50;99.90
13606;DHT22;6874;52.084;5.090;2024-03-07T02:01:15;6.40;99.90
13606;DHT22;6874;52.084;5.090;2024-03-07T02:03:41;6.40;99.90
13606;DHT22;6874;52.084;5.090;2024-03-07T02:06:08;6.40;99.90
13606;DHT22;6874;52.084;5.090;2024-03-07T02:08:34;6.40;99.90
13606;DHT22;6874;52.084;5.090;2024-03-07T02:11:00;6.40;99.90
13606;DHT22;6874;52.084;5.090;2024-03-07T02:13:26;6.30;99.90
13606;DHT22;6874;52.084;5.090;2024-03-07T02:15:52;6.30;99.90
13606;DHT22;6874;52.084;5.090;2024-03-07T02:18:20;6.30;99.90
13606;DHT22;6874;52.084;5.090;2024-03-07T02:20:46;6.30;99.90
13606;DHT22;6874;52.084;5.090;2024-03-07T02:23:11;6.30;99.90
13606;DHT22;6874;52.084;5.090;2024-03-07T02:25:37;6.20;99.90
13606;DHT22;6874;52.084;5.090;2024-03-07T02:28:04;6.20;99.90
13606;DHT22;6874;52.084;5.090;2024-03-07T02:30:30;6.20;99.90
13606;DHT22;6874;52.084;5.090;2024-03-07T02:32:58;6.20;99.90
13606;DHT22;6874;52.084;5.090;2024-03-07T02:35:25;6.20;99.90
13606;DHT22;6874;52.084;5.090;2024-03-07T02:37:51;6.10;99.90
13606;DHT22;6874;52.084;5.090;2024-03-07T02:40:16;6.10;99.90
13606;DHT22;6874;52.084;5.090;2024-03-07T02:42:42;6.10;99.90
13606;DHT22;6874;52.084;5.090;2024-03-07T02:45:08;6.10;99.90
13606;DHT22;6874;52.084;5.090;2024-03-07T02:47:35;6.10;99.90
13606;DHT22;6874;52.084;5.090;2024-03-07T02:50:01;6.10;99.90
13606;DHT22;6874;52.084;5.090;2024-03-07T02:52:27;6.00;99.90
13606;DHT22;6874;52.084;5.090;2024-03-07T02:54:52;6.00;99.90
13606;DHT22;6874;52.084;5.090;2024-03-07T02:57:18;6.00;99.90
13606;DHT22;6874;52.084;5.090;2024-03-07T02:59:43;6.00;99.90
13606;DHT22;6874;52.084;5.090;2024-03-07T03:02:09;6.00;99.90
13606;DHT22;6874;52.084;5.090;2024-03-07T03:04:34;6.00;99.90
13606;DHT22;6874;52.084;5.090;2024-03-07T03:07:00;6.00;99.90
13606;DHT22;6874;52.084;5.090;2024-03-07T03:09:26;6.00;99.90
13606;DHT22;6874;52.084;5.090;2024-03-07T03:11:53;6.00;99.90
13606;DHT22;6874;52.084;5.090;2024-03-07T03:14:18;6.10;99.90
13606;DHT22;6874;52.084;5.090;2024-03-07T03:16:44;6.00;99.90
13606;DHT22;6874;52.084;5.090;2024-03-07T03:19:10;6.00;99.90
13606;DHT22;6874;52.084;5.090;2024-03-07T03:21:36;6.00;99.90
13606;DHT22;6874;52.084;5.090;2024-03-07T03:24:02;6.00;99.90
13606;DHT22;6874;52.084;5.090;2024-03-07T03:26:28;6.00;99.90
13606;DHT22;6874;52.084;5.090;2024-03-07T03:28:54;6.00;99.90
13606;DHT22;6874;52.084;5.090;2024-03-07T03:31:19;6.00;99.90
13606;DHT22;6874;52.084;5.090;2024-03-07T03:33:45;6.00;99.90
13606;DHT22;6874;52.084;5.090;2024-03-07T03:36:11;6.00;99.90
13606;DHT22;6874;52.084;5.090;2024-03-07T03:38:36;6.00;99.90
13606;DHT22;6874;52.084;5.090;2024-03-07T03:41:02;6.00;99.90
13606;DHT22;6874;52.084;5.090;2024-03-07T03:43:29;6.00;99.90
13606;DHT22;6874;52.084;5.090;2024-03-07T03:45:54;6.00;99.90
13606;DHT22;6874;52.084;5.090;2024-03-07T03:48:20;6.00;99.90
13606;DHT22;6874;52.084;5.090;2024-03-07T03:50:45;6.00;99.90
13606;DHT22;6874;52.084;5.090;2024-03-07T03:53:12;6.00;99.90
13606;DHT22;6874;52.084;5.090;2024-03-07T03:55:37;6.00;99.90
13606;DHT22;6874;52.084;5.090;2024-03-07T03:58:03;5.90;99.90
13606;DHT22;6874;52.084;5.090;2024-03-07T04:00:31;5.90;99.90
13606;DHT22;6874;52.084;5.090;2024-03-07T04:02:56;5.90;99.90
13606;DHT22;6874;52.084;5.090;2024-03-07T04:05:22;5.90;99.90
13606;DHT22;6874;52.084;5.090;2024-03-07T04:07:48;5.90;99.90
13606;DHT22;6874;52.084;5.090;2024-03-07T04:10:15;5.80;99.90
13606;DHT22;6874;52.084;5.090;2024-03-07T04:12:41;5.80;99.90
13606;DHT22;6874;52.084;5.090;2024-03-07T04:15:12;5.80;99.90
13606;DHT22;6874;52.084;5.090;2024-03-07T04:17:39;5.80;99.90
13606;DHT22;6874;52.084;5.090;2024-03-07T04:20:05;5.80;99.90
13606;DHT22;6874;52.084;5.090;2024-03-07T04:22:34;5.80;99.90
13606;DHT22;6874;52.084;5.090;2024-03-07T04:25:01;5.70;99.90
13606;DHT22;6874;52.084;5.090;2024-03-07T04:27:27;5.70;99.90
13606;DHT22;6874;52.084;5.090;2024-03-07T04:29:53;5.70;99.90
13606;DHT22;6874;52.084;5.090;2024-03-07T04:32:18;5.70;99.90
13606;DHT22;6874;52.084;5.090;2024-03-07T04:34:44;5.70;99.90
13606;DHT22;6874;52.084;5.090;2024-03-07T04:37:10;5.60;99.90
13606;DHT22;6874;52.084;5.090;2024-03-07T04:39:35;5.70;99.90
13606;DHT22;6874;52.084;5.090;2024-03-07T04:42:02;5.60;99.90
13606;DHT22;6874;52.084;5.090;2024-03-07T04:44:32;5.60;99.90
13606;DHT22;6874;52.084;5.090;2024-03-07T04:46:58;5.60;99.90
13606;DHT22;6874;52.084;5.090;2024-03-07T04:49:27;5.60;99.90
13606;DHT22;6874;52.084;5.090;2024-03-07T04:51:54;5.60;99.90
13606;DHT22;6874;52.084;5.090;2024-03-07T04:54:22;5.50;99.90
13606;DHT22;6874;52.084;5.090;2024-03-07T04:56:49;5.50;99.90
13606;DHT22;6874;52.084;5.090;2024-03-07T04:59:16;5.50;99.90
13606;DHT22;6874;52.084;5.090;2024-03-07T05:01:46;5.50;99.90
13606;DHT22;6874;52.084;5.090;2024-03-07T05:04:12;5.50;99.90
13606;DHT22;6874;52.084;5.090;2024-03-07T05:06:38;5.40;99.90
13606;DHT22;6874;52.084;5.090;2024-03-07T05:09:05;5.40;99.90
13606;DHT22;6874;52.084;5.090;2024-03-07T05:11:33;5.40;99.90
13606;DHT22;6874;52.084;5.090;2024-03-07T05:13:59;5.40;99.90
13606;DHT22;6874;52.084;5.090;2024-03-07T05:16:28;5.40;99.90
13606;DHT22;6874;52.084;5.090;2024-03-07T05:18:54;5.40;99.90
13606;DHT22;6874;52.084;5.090;2024-03-07T05:21:23;5.40;99.90
13606;DHT22;6874;52.084;5.090;2024-03-07T05:23:58;5.30;99.90
13606;DHT22;6874;52.084;5.090;2024-03-07T05:26:24;5.30;99.90
13606;DHT22;6874;52.084;5.090;2024-03-07T05:28:51;5.30;99.90
13606;DHT22;6874;52.084;5.090;2024-03-07T05:31:17;5.30;99.90
13606;DHT22;6874;52.084;5.090;2024-03-07T05:33:46;5.30;99.90
13606;DHT22;6874;52.084;5.090;2024-03-07T05:36:12;5.20;99.90
13606;DHT22;6874;52.084;5.090;2024-03-07T05:38:41;5.20;99.90
13606;DHT22;6874;52.084;5.090;2024-03-07T05:41:11;5.20;99.90
13606;DHT22;6874;52.084;5.090;2024-03-07T05:43:38;5.20;99.90
13606;DHT22;6874;52.084;5.090;2024-03-07T05:46:03;5.20;99.90
13606;DHT22;6874;52.084;5.090;2024-03-07T05:48:29;5.20;99.90
13606;DHT22;6874;52.084;5.090;2024-03-07T05:50:55;5.20;99.90
13606;DHT22;6874;52.084;5.090;2024-03-07T05:53:20;5.10;99.90
13606;DHT22;6874;52.084;5.090;2024-03-07T05:55:46;5.10;99.90
13606;DHT22;6874;52.084;5.090;2024-03-07T05:58:12;5.10;99.90
13606;DHT22;6874;52.084;5.090;2024-03-07T06:00:37;5.10;99.90
13606;DHT22;6874;52.084;5.090;2024-03-07T06:03:06;5.10;99.90
13606;DHT22;6874;52.084;5.090;2024-03-07T06:05:33;5.10;99.90
13606;DHT22;6874;52.084;5.090;2024-03-07T06:07:59;5.10;99.90
13606;DHT22;6874;52.084;5.090;2024-03-07T06:10:24;5.00;99.90
13606;DHT22;6874;52.084;5.090;2024-03-07T06:12:51;5.00;99.90
13606;DHT22;6874;52.084;5.090;2024-03-07T06:15:17;5.00;99.90
13606;DHT22;6874;52.084;5.090;2024-03-07T06:17:42;5.00;99.90
13606;DHT22;6874;52.084;5.090;2024-03-07T06:20:14;5.00;99.90
13606;DHT22;6874;52.084;5.090;2024-03-07T06:22:50;5.00;99.90
13606;DHT22;6874;52.084;5.090;2024-03-07T06:25:18;5.00;99.90
13606;DHT22;6874;52.084;5.090;2024-03-07T06:28:05;4.90;99.90
13606;DHT22;6874;52.084;5.090;2024-03-07T06:30:43;5.00;99.90
13606;DHT22;6874;52.084;5.090;2024-03-07T06:33:10;4.90;99.90
13606;DHT22;6874;52.084;5.090;2024-03-07T06:35:37;4.90;99.90
13606;DHT22;6874;52.084;5.090;2024-03-07T06:38:04;4.90;99.90
13606;DHT22;6874;52.084;5.090;2024-03-07T06:40:31;4.90;99.90
13606;DHT22;6874;52.084;5.090;2024-03-07T06:42:58;4.90;99.90
13606;DHT22;6874;52.084;5.090;2024-03-07T06:45:24;4.80;99.90
13606;DHT22;6874;52.084;5.090;2024-03-07T06:47:50;4.80;99.90
13606;DHT22;6874;52.084;5.090;2024-03-07T06:50:18;4.80;99.90
13606;DHT22;6874;52.084;5.090;2024-03-07T06:52:45;4.80;99.90
13606;DHT22;6874;52.084;5.090;2024-03-07T06:55:15;4.80;99.90
13606;DHT22;6874;52.084;5.090;2024-03-07T06:57:42;4.80;99.90
13606;DHT22;6874;52.084;5.090;2024-03-07T07:00:09;4.80;99.90
13606;DHT22;6874;52.084;5.090;2024-03-07T07:02:39;4.80;99.90
13606;DHT22;6874;52.084;5.090;2024-03-07T07:05:06;4.80;99.90
13606;DHT22;6874;52.084;5.090;2024-03-07T07:07:40;4.80;99.90
13606;DHT22;6874;52.084;5.090;2024-03-07T07:10:09;4.80;99.90
13606;DHT22;6874;52.084;5.090;2024-03-07T07:12:47;4.80;99.90
13606;DHT22;6874;52.084;5.090;2024-03-07T07:15:18;4.70;99.90
13606;DHT22;6874;52.084;5.090;2024-03-07T07:17:44;4.70;99.90
13606;DHT22;6874;52.084;5.090;2024-03-07T07:20:18;4.80;99.90
13606;DHT22;6874;52.084;5.090;2024-03-07T07:22:47;4.70;99.90
13606;DHT22;6874;52.084;5.090;2024-03-07T07:25:20;4.70;99.90
13606;DHT22;6874;52.084;5.090;2024-03-07T07:27:50;4.70;99.90
13606;DHT22;6874;52.084;5.090;2024-03-07T07:30:23;4.80;99.90
13606;DHT22;6874;52.084;5.090;2024-03-07T07:32:52;4.70;99.90
13606;DHT22;6874;52.084;5.090;2024-03-07T07:35:19;4.80;99.90
13606;DHT22;6874;52.084;5.090;2024-03-07T07:37:49;4.70;99.90
13606;DHT22;6874;52.084;5.090;2024-03-07T07:40:17;4.70;99.90
13606;DHT22;6874;52.084;5.090;2024-03-07T07:42:51;4.70;99.90
13606;DHT22;6874;52.084;5.090;2024-03-07T07:45:18;4.70;99.90
13606;DHT22;6874;52.084;5.090;2024-03-07T07:47:49;4.70;99.90
13606;DHT22;6874;52.084;5.090;2024-03-07T07:50:18;4.70;99.90
13606;DHT22;6874;52.084;5.090;2024-03-07T07:52:47;4.70;99.90
13606;DHT22;6874;52.084;5.090;2024-03-07T07:55:14;4.70;99.90
13606;DHT22;6874;52.084;5.090;2024-03-07T07:57:46;4.70;99.90
13606;DHT22;6874;52.084;5.090;2024-03-07T08:00:16;4.70;99.90
13606;DHT22;6874;52.084;5.090;2024-03-07T08:05:18;4.70;99.90
13606;DHT22;6874;52.084;5.090;2024-03-07T08:07:47;4.70;99.90
13606;DHT22;6874;52.084;5.090;2024-03-07T08:10:14;4.70;99.90
13606;DHT22;6874;52.084;5.090;2024-03-07T08:12:40;4.70;99.90
13606;DHT22;6874;52.084;5.090;2024-03-07T08:15:09;4.70;99.90
13606;DHT22;6874;52.084;5.090;2024-03-07T08:17:39;4.70;99.90
13606;DHT22;6874;52.084;5.090;2024-03-07T08:20:05;4.80;99.90
13606;DHT22;6874;52.084;5.090;2024-03-07T08:22:35;4.70;99.90
13606;DHT22;6874;52.084;5.090;2024-03-07T08:25:01;4.80;99.90
13606;DHT22;6874;52.084;5.090;2024-03-07T08:27:26;4.80;99.90
13606;DHT22;6874;52.084;5.090;2024-03-07T08:29:52;4.80;99.90
13606;DHT22;6874;52.084;5.090;2024-03-07T08:32:17;4.80;99.90
13606;DHT22;6874;52.084;5.090;2024-03-07T08:34:44;4.80;99.90
13606;DHT22;6874;52.084;5.090;2024-03-07T08:37:10;4.80;99.90
13606;DHT22;6874;52.084;5.090;2024-03-07T08:39:36;4.80;99.90
13606;DHT22;6874;52.084;5.090;2024-03-07T08:42:02;4.80;99.90
13606;DHT22;6874;52.084;5.090;2024-03-07T08:44:27;4.80;99.90
13606;DHT22;6874;52.084;5.090;2024-03-07T08:46:53;4.90;99.90
13606;DHT22;6874;52.084;5.090;2024-03-07T08:49:18;4.90;99.90
13606;DHT22;6874;52.084;5.090;2024-03-07T08:51:45;4.90;99.90
13606;DHT22;6874;52.084;5.090;2024-03-07T08:54:10;4.90;99.90
13606;DHT22;6874;52.084;5.090;2024-03-07T08:56:36;4.90;99.90
13606;DHT22;6874;52.084;5.090;2024-03-07T08:59:01;4.90;99.90
13606;DHT22;6874;52.084;5.090;2024-03-07T09:01:27;4.90;99.90
13606;DHT22;6874;52.084;5.090;2024-03-07T09:03:53;4.90;99.90
13606;DHT22;6874;52.084;5.090;2024-03-07T09:06:19;5.00;99.90
13606;DHT22;6874;52.084;5.090;2024-03-07T09:08:44;5.00;99.90
13606;DHT22;6874;52.084;5.090;2024-03-07T09:11:10;5.00;99.90
13606;DHT22;6874;52.084;5.090;2024-03-07T09:13:36;5.00;99.90
13606;DHT22;6874;52.084;5.090;2024-03-07T09:16:02;5.00;99.90
13606;DHT22;6874;52.084;5.090;2024-03-07T09:18:30;5.10;99.90
13606;DHT22;6874;52.084;5.090;2024-03-07T09:20:55;5.10;99.90
13606;DHT22;6874;52.084;5.090;2024-03-07T09:23:21;5.10;99.90
13606;DHT22;6874;52.084;5.090;2024-03-07T09:25:46;5.10;99.90
13606;DHT22;6874;52.084;5.090;2024-03-07T09:28:12;5.10;99.90
13606;DHT22;6874;52.084;5.090;2024-03-07T09:30:38;5.20;99.90
13606;DHT22;6874;52.084;5.090;2024-03-07T09:33:05;5.10;99.90
13606;DHT22;6874;52.084;5.090;2024-03-07T09:35:30;5.20;99.90
13606;DHT22;6874;52.084;5.090;2024-03-07T09:37:56;5.20;99.90
13606;DHT22;6874;52.084;5.090;2024-03-07T09:40:21;5.20;99.90
13606;DHT22;6874;52.084;5.090;2024-03-07T09:42:50;5.20;99.90
13606;DHT22;6874;52.084;5.090;2024-03-07T09:45:22;5.20;99.90
13606;DHT22;6874;52.084;5.090;2024-03-07T09:47:53;5.20;99.90
13606;DHT22;6874;52.084;5.090;2024-03-07T09:50:20;5.30;99.90
13606;DHT22;6874;52.084;5.090;2024-03-07T09:52:50;5.30;99.90
13606;DHT22;6874;52.084;5.090;2024-03-07T09:55:18;5.30;99.90
13606;DHT22;6874;52.084;5.090;2024-03-07T09:57:48;5.30;99.90
13606;DHT22;6874;52.084;5.090;2024-03-07T10:00:16;5.30;99.90
13606;DHT22;6874;52.084;5.090;2024-03-07T10:02:50;5.30;99.90
13606;DHT22;6874;52.084;5.090;2024-03-07T10:05:18;5.30;99.90
13606;DHT22;6874;52.084;5.090;2024-03-07T10:07:45;5.40;99.90
13606;DHT22;6874;52.084;5.090;2024-03-07T10:10:11;5.40;99.90
13606;DHT22;6874;52.084;5.090;2024-03-07T10:12:38;5.50;99.90
13606;DHT22;6874;52.084;5.090;2024-03-07T10:15:04;5.50;99.90
13606;DHT22;6874;52.084;5.090;2024-03-07T10:17:31;5.50;99.90
13606;DHT22;6874;52.084;5.090;2024-03-07T10:19:58;5.50;99.90
13606;DHT22;6874;52.084;5.090;2024-03-07T10:22:26;5.50;99.90
13606;DHT22;6874;52.084;5.090;2024-03-07T10:24:53;5.50;99.90
13606;DHT22;6874;52.084;5.090;2024-03-07T10:27:23;5.60;99.90
13606;DHT22;6874;52.084;5.090;2024-03-07T10:29:51;5.60;99.90
13606;DHT22;6874;52.084;5.090;2024-03-07T10:32:21;5.60;99.90
13606;DHT22;6874;52.084;5.090;2024-03-07T10:34:53;5.70;99.90
13606;DHT22;6874;52.084;5.090;2024-03-07T10:37:20;5.70;99.90
13606;DHT22;6874;52.084;5.090;2024-03-07T10:39:50;5.70;99.90
13606;DHT22;6874;52.084;5.090;2024-03-07T10:42:19;5.80;99.90
13606;DHT22;6874;52.084;5.090;2024-03-07T10:44:48;5.80;99.90
13606;DHT22;6874;52.084;5.090;2024-03-07T10:47:18;5.80;99.90
13606;DHT22;6874;52.084;5.090;2024-03-07T10:50:02;5.90;99.90
13606;DHT22;6874;52.084;5.090;2024-03-07T10:52:39;5.90;99.90
13606;DHT22;6874;52.084;5.090;2024-03-07T10:55:12;6.00;99.90
13606;DHT22;6874;52.084;5.090;2024-03-07T10:57:52;6.00;99.90
13606;DHT22;6874;52.084;5.090;2024-03-07T11:00:22;6.10;99.90
13606;DHT22;6874;52.084;5.090;2024-03-07T11:03:06;6.10;99.90
13606;DHT22;6874;52.084;5.090;2024-03-07T11:05:34;6.20;99.90
13606;DHT22;6874;52.084;5.090;2024-03-07T11:08:02;6.20;99.90
13606;DHT22;6874;52.084;5.090;2024-03-07T11:10:33;6.20;99.90
13606;DHT22;6874;52.084;5.090;2024-03-07T11:13:00;6.30;99.90
13606;DHT22;6874;52.084;5.090;2024-03-07T11:15:26;6.40;99.90
13606;DHT22;6874;52.084;5.090;2024-03-07T11:17:54;6.40;99.90
13606;DHT22;6874;52.084;5.090;2024-03-07T11:20:24;6.50;99.90
13606;DHT22;6874;52.084;5.090;2024-03-07T11:22:51;6.50;99.90
13606;DHT22;6874;52.084;5.090;2024-03-07T11:25:20;6.60;99.90
13606;DHT22;6874;52.084;5.090;2024-03-07T11:27:59;6.70;99.90
13606;DHT22;6874;52.084;5.090;2024-03-07T11:30:25;6.70;99.90
13606;DHT22;6874;52.084;5.090;2024-03-07T11:32:52;6.90;99.90
13606;DHT22;6874;52.084;5.090;2024-03-07T11:35:30;6.90;99.90
13606;DHT22;6874;52.084;5.090;2024-03-07T11:37:58;7.00;99.90
13606;DHT22;6874;52.084;5.090;2024-03-07T11:42:52;7.20;99.90
13606;DHT22;6874;52.084;5.090;2024-03-07T11:45:20;7.40;99.90
13606;DHT22;6874;52.084;5.090;2024-03-07T11:47:54;7.50;99.90
13606;DHT22;6874;52.084;5.090;2024-03-07T11:50:30;7.70;99.90
13606;DHT22;6874;52.084;5.090;2024-03-07T11:53:01;7.90;99.90
13606;DHT22;6874;52.084;5.090;2024-03-07T11:55:27;8.00;99.90
13606;DHT22;6874;52.084;5.090;2024-03-07T11:57:59;8.20;99.90
13606;DHT22;6874;52.084;5.090;2024-03-07T12:00:26;8.40;99.90
13606;DHT22;6874;52.084;5.090;2024-03-07T12:02:55;8.60;99.90
13606;DHT22;6874;52.084;5.090;2024-03-07T12:05:20;8.80;99.90
13606;DHT22;6874;52.084;5.090;2024-03-07T12:07:46;9.00;99.90
13606;DHT22;6874;52.084;5.090;2024-03-07T12:10:12;9.10;99.90
13606;DHT22;6874;52.084;5.090;2024-03-07T12:12:38;9.20;99.90
13606;DHT22;6874;52.084;5.090;2024-03-07T12:15:06;9.40;99.90
13606;DHT22;6874;52.084;5.090;2024-03-07T12:17:37;9.50;99.90
13606;DHT22;6874;52.084;5.090;2024-03-07T12:20:05;9.60;99.90
13606;DHT22;6874;52.084;5.090;2024-03-07T12:22:56;9.70;99.90
13606;DHT22;6874;52.084;5.090;2024-03-07T12:25:22;9.70;99.90
13606;DHT22;6874;52.084;5.090;2024-03-07T12:28:21;9.80;99.90
13606;DHT22;6874;52.084;5.090;2024-03-07T12:30:49;9.90;99.90
13606;DHT22;6874;52.084;5.090;2024-03-07T12:33:17;10.00;99.90
13606;DHT22;6874;52.084;5.090;2024-03-07T12:35:44;10.00;99.90
13606;DHT22;6874;52.084;5.090;2024-03-07T12:38:10;10.00;99.90
13606;DHT22;6874;52.084;5.090;2024-03-07T12:40:37;10.00;99.90
13606;DHT22;6874;52.084;5.090;2024-03-07T12:43:12;10.10;99.90
13606;DHT22;6874;52.084;5.090;2024-03-07T12:45:44;10.10;99.90
13606;DHT22;6874;52.084;5.090;2024-03-07T12:48:10;10.10;99.90
13606;DHT22;6874;52.084;5.090;2024-03-07T12:50:40;10.10;99.90
13606;DHT22;6874;52.084;5.090;2024-03-07T12:53:06;10.20;99.90
13606;DHT22;6874;52.084;5.090;2024-03-07T12:55:38;10.30;99.90
13606;DHT22;6874;52.084;5.090;2024-03-07T12:58:10;10.30;99.90
13606;DHT22;6874;52.084;5.090;2024-03-07T13:00:41;10.40;99.90
13606;DHT22;6874;52.084;5.090;2024-03-07T13:03:10;10.50;99.90
13606;DHT22;6874;52.084;5.090;2024-03-07T13:05:37;10.60;99.90
13606;DHT22;6874;52.084;5.090;2024-03-07T13:08:09;10.60;99.90
13606;DHT22;6874;52.084;5.090;2024-03-07T13:10:41;10.60;99.90
13606;DHT22;6874;52.084;5.090;2024-03-07T13:13:07;10.60;99.90
13606;DHT22;6874;52.084;5.090;2024-03-07T13:15:35;10.60;99.90
13606;DHT22;6874;52.084;5.090;2024-03-07T13:18:02;10.60;99.90
13606;DHT22;6874;52.084;5.090;2024-03-07T13:20:30;10.60;99.90
13606;DHT22;6874;52.084;5.090;2024-03-07T13:22:55;10.50;99.90
13606;DHT22;6874;52.084;5.090;2024-03-07T13:25:26;10.60;99.90
13606;DHT22;6874;52.084;5.090;2024-03-07T13:28:01;10.60;99.90
13606;DHT22;6874;52.084;5.090;2024-03-07T13:30:28;10.60;99.90
13606;DHT22;6874;52.084;5.090;2024-03-07T13:32:55;10.80;99.90
13606;DHT22;6874;52.084;5.090;2024-03-07T13:35:21;10.70;99.90
13606;DHT22;6874;52.084;5.090;2024-03-07T13:37:48;10.60;99.90
13606;DHT22;6874;52.084;5.090;2024-03-07T13:40:14;10.80;99.90
13606;DHT22;6874;52.084;5.090;2024-03-07T13:42:59;10.70;99.90
13606;DHT22;6874;52.084;5.090;2024-03-07T13:45:30;10.70;99.90
13606;DHT22;6874;52.084;5.090;2024-03-07T13:47:57;10.70;99.90
13606;DHT22;6874;52.084;5.090;2024-03-07T13:50:25;10.70;99.90
13606;DHT22;6874;52.084;5.090;2024-03-07T13:52:55;10.80;99.90
13606;DHT22;6874;52.084;5.090;2024-03-07T14:12:37;11.00;99.90
13606;DHT22;6874;52.084;5.090;2024-03-07T14:18:18;11.00;99.90
13606;DHT22;6874;52.084;5.090;2024-03-07T14:21:16;11.00;99.90
13606;DHT22;6874;52.084;5.090;2024-03-07T14:24:14;11.00;99.90
13606;DHT22;6874;52.084;5.090;2024-03-07T14:32:49;11.00;99.90
13606;DHT22;6874;52.084;5.090;2024-03-07T14:35:31;11.00;99.90
13606;DHT22;6874;52.084;5.090;2024-03-07T14:38:27;11.00;99.90
13606;DHT22;6874;52.084;5.090;2024-03-07T14:40:53;11.00;99.90
13606;DHT22;6874;52.084;5.090;2024-03-07T14:43:20;11.00;99.90
13606;DHT22;6874;52.084;5.090;2024-03-07T14:45:46;11.00;99.90
13606;DHT22;6874;52.084;5.090;2024-03-07T14:48:14;11.00;99.90
13606;DHT22;6874;52.084;5.090;2024-03-07T14:50:43;11.00;99.90
13606;DHT22;6874;52.084;5.090;2024-03-07T14:53:14;11.00;99.90
13606;DHT22;6874;52.084;5.090;2024-03-07T14:55:42;11.00;99.90
13606;DHT22;6874;52.084;5.090;2024-03-07T14:58:11;11.00;99.90
13606;DHT22;6874;52.084;5.090;2024-03-07T15:00:38;11.00;99.90
13606;DHT22;6874;52.084;5.090;2024-03-07T15:03:14;11.00;99.90
13606;DHT22;6874;52.084;5.090;2024-03-07T15:05:42;10.90;99.90
13606;DHT22;6874;52.084;5.090;2024-03-07T15:08:10;10.90;99.90
13606;DHT22;6874;52.084;5.090;2024-03-07T15:10:43;10.90;99.90
13606;DHT22;6874;52.084;5.090;2024-03-07T15:13:12;10.80;99.90
13606;DHT22;6874;52.084;5.090;2024-03-07T15:15:38;10.80;99.90
13606;DHT22;6874;52.084;5.090;2024-03-07T15:18:05;10.80;99.90
13606;DHT22;6874;52.084;5.090;2024-03-07T15:20:31;10.70;99.90
13606;DHT22;6874;52.084;5.090;2024-03-07T15:22:59;10.70;99.90
13606;DHT22;6874;52.084;5.090;2024-03-07T15:25:26;10.80;99.90
13606;DHT22;6874;52.084;5.090;2024-03-07T15:27:53;10.60;99.90
13606;DHT22;6874;52.084;5.090;2024-03-07T15:30:22;10.60;99.90
13606;DHT22;6874;52.084;5.090;2024-03-07T15:32:51;10.50;99.90
13606;DHT22;6874;52.084;5.090;2024-03-07T15:35:17;10.50;99.90
13606;DHT22;6874;52.084;5.090;2024-03-07T15:37:50;10.50;99.90
13606;DHT22;6874;52.084;5.090;2024-03-07T15:40:16;10.40;99.90
13606;DHT22;6874;52.084;5.090;2024-03-07T15:42:43;10.40;99.90
13606;DHT22;6874;52.084;5.090;2024-03-07T15:45:13;10.40;99.90
13606;DHT22;6874;52.084;5.090;2024-03-07T15:47:52;10.30;99.90
13606;DHT22;6874;52.084;5.090;2024-03-07T15:50:18;10.30;99.90
13606;DHT22;6874;52.084;5.090;2024-03-07T15:52:48;10.30;99.90
13606;DHT22;6874;52.084;5.090;2024-03-07T15:55:17;10.30;99.90
13606;DHT22;6874;52.084;5.090;2024-03-07T15:57:46;10.20;99.90
13606;DHT22;6874;52.084;5.090;2024-03-07T16:00:15;10.20;99.90
13606;DHT22;6874;52.084;5.090;2024-03-07T16:02:58;10.10;99.90
13606;DHT22;6874;52.084;5.090;2024-03-07T16:05:25;10.10;99.90
13606;DHT22;6874;52.084;5.090;2024-03-07T16:07:52;10.10;99.90
13606;DHT22;6874;52.084;5.090;2024-03-07T16:10:19;10.10;99.90
13606;DHT22;6874;52.084;5.090;2024-03-07T16:12:45;10.00;99.90
13606;DHT22;6874;52.084;5.090;2024-03-07T16:15:10;10.00;99.90
13606;DHT22;6874;52.084;5.090;2024-03-07T16:17:36;10.00;99.90
13606;DHT22;6874;52.084;5.090;2024-03-07T16:20:03;10.00;99.90
13606;DHT22;6874;52.084;5.090;2024-03-07T16:22:32;10.00;99.90
13606;DHT22;6874;52.084;5.090;2024-03-07T16:24:57;9.90;99.90
13606;DHT22;6874;52.084;5.090;2024-03-07T16:27:23;9.90;99.90
13606;DHT22;6874;52.084;5.090;2024-03-07T16:29:48;9.90;99.90
13606;DHT22;6874;52.084;5.090;2024-03-07T16:32:15;9.80;99.90
13606;DHT22;6874;52.084;5.090;2024-03-07T16:34:40;9.80;99.90